createdAt,value
2018-12-25T12:38:40.764Z,15.31
2018-12-25T12:41:08.675Z,16.47
2018-12-25T12:43:37.024Z,16.47
2018-12-25T12:46:06.949Z,17.75
2018-12-25T12:48:35.572Z,18.90
2018-12-25T12:51:04.525Z,18.90
2018-12-25T12:53:33.674Z,19.26
2018-12-25T12:56:02.088Z,19.44
2018-12-25T12:58:30.659Z,19.69
2018-12-25T13:00:58.315Z,19.77
2018-12-25T13:03:27.562Z,19.90
2018-12-25T13:05:55.992Z,19.97
2018-12-25T13:08:24.676Z,20.13
2018-12-25T13:10:53.382Z,20.25
2018-12-25T13:13:22.866Z,20.25
2018-12-25T13:15:50.749Z,20.25
2018-12-25T13:18:19.578Z,20.25
2018-12-25T13:22:54.111Z,20.45
2018-12-25T13:25:17.925Z,20.45
2018-12-25T13:27:45.746Z,20.50
2018-12-25T13:30:15.230Z,20.52
2018-12-25T13:32:44.402Z,20.56
2018-12-25T13:35:11.815Z,20.51
2018-12-25T13:37:39.484Z,20.51
2018-12-25T13:40:06.895Z,20.56
2018-12-25T13:42:34.494Z,20.55
2018-12-25T13:45:01.996Z,20.51
2018-12-25T13:47:29.416Z,20.48
2018-12-25T13:49:56.864Z,20.41
2018-12-25T13:52:25.100Z,20.40
2018-12-25T13:54:53.146Z,20.40
2018-12-25T13:57:20.734Z,20.41
2018-12-25T13:59:48.804Z,20.49
2018-12-25T14:02:17.547Z,20.55
2018-12-25T14:04:44.839Z,20.50
2018-12-25T14:07:12.893Z,20.40
2018-12-25T14:09:40.740Z,20.15
2018-12-25T14:12:07.620Z,20.15
2018-12-25T14:14:34.770Z,20.09
2018-12-25T14:17:02.952Z,20.19
2018-12-25T14:19:31.329Z,20.14
2018-12-25T14:21:59.238Z,20.19
2018-12-25T14:24:26.999Z,20.10
2018-12-25T14:27:45.485Z,19.97
2018-12-25T14:30:12.785Z,19.90
2018-12-25T14:32:40.238Z,19.93
2018-12-25T14:35:07.515Z,20.01
2018-12-25T14:37:34.983Z,20.05
2018-12-25T14:40:02.421Z,20.12
2018-12-25T14:42:30.189Z,20.17
2018-12-25T14:44:58.425Z,20.19
2018-12-25T14:47:26.426Z,20.17
2018-12-25T14:49:54.524Z,20.23
2018-12-25T14:52:22.601Z,20.45
2018-12-25T14:54:50.606Z,20.57
2018-12-25T14:57:17.866Z,20.55
2018-12-25T14:59:45.543Z,20.52
2018-12-25T15:02:12.981Z,20.52
2018-12-25T15:04:40.529Z,20.67
2018-12-25T15:07:08.466Z,20.60
2018-12-25T15:09:36.350Z,20.56
2018-12-25T15:12:04.050Z,20.48
2018-12-25T15:14:31.691Z,20.48
2018-12-25T15:17:43.389Z,20.64
2018-12-25T15:20:11.631Z,20.57
2018-12-25T15:22:40.662Z,20.48
2018-12-25T15:25:08.417Z,20.55
2018-12-25T15:27:36.431Z,20.61
2018-12-25T15:30:04.480Z,20.60
2018-12-25T15:32:31.760Z,20.58
2018-12-25T15:34:58.709Z,20.57
2018-12-25T15:37:26.994Z,20.58
2018-12-25T15:41:27.239Z,20.73
2018-12-25T15:43:54.714Z,20.80
2018-12-25T15:46:21.846Z,20.86
2018-12-25T15:48:49.237Z,20.76
2018-12-25T15:51:16.600Z,20.76
2018-12-25T15:53:44.060Z,20.77
2018-12-25T15:56:11.699Z,20.80
2018-12-25T15:58:38.602Z,20.86
2018-12-25T16:01:06.410Z,20.73
2018-12-25T16:03:33.936Z,20.68
2018-12-25T16:06:01.375Z,20.62
2018-12-25T16:08:28.966Z,20.57
2018-12-25T16:10:56.811Z,20.60
2018-12-25T16:13:25.383Z,20.59
2018-12-25T16:15:53.938Z,20.57
2018-12-25T16:18:22.416Z,20.60
2018-12-25T16:20:50.335Z,20.72
2018-12-25T16:23:17.718Z,20.81
2018-12-25T16:25:50.072Z,20.89
2018-12-25T16:28:17.744Z,20.93
2018-12-25T16:30:45.518Z,21.01
2018-12-25T16:33:13.225Z,21.03
2018-12-25T16:35:42.091Z,21.00
2018-12-25T16:38:09.800Z,20.96
2018-12-25T16:40:38.849Z,20.94
2018-12-25T16:43:06.488Z,21.01
2018-12-25T16:45:34.722Z,21.01
2018-12-25T16:48:02.496Z,20.89
2018-12-25T16:50:29.795Z,20.96
2018-12-25T16:52:57.580Z,20.94
2018-12-25T16:55:25.367Z,20.88
2018-12-25T16:57:52.936Z,21.00
2018-12-25T17:00:21.439Z,21.32
2018-12-25T17:02:50.243Z,21.38
2018-12-25T17:05:18.460Z,21.40
2018-12-25T17:07:45.985Z,21.46
2018-12-25T17:10:13.400Z,21.45
2018-12-25T17:12:40.770Z,21.49
2018-12-25T17:15:07.820Z,21.56
2018-12-25T17:17:35.856Z,21.53
2018-12-25T17:20:03.482Z,21.36
2018-12-25T17:22:31.434Z,21.46
2018-12-25T17:24:59.803Z,21.46
2018-12-25T17:27:27.611Z,21.46
2018-12-25T17:29:55.244Z,21.46
2018-12-25T17:32:22.888Z,21.31
2018-12-25T17:34:51.359Z,21.46
2018-12-25T17:37:18.632Z,21.67
2018-12-25T17:39:46.248Z,21.63
2018-12-25T17:42:14.460Z,21.46
2018-12-25T17:44:42.337Z,21.30
2018-12-25T17:47:09.589Z,21.23
2018-12-25T17:49:37.963Z,21.18
2018-12-25T17:52:05.765Z,21.19
2018-12-25T17:54:32.738Z,21.17
2018-12-25T17:57:01.051Z,21.10
2018-12-25T17:59:29.247Z,21.13
2018-12-25T18:01:57.370Z,21.08
2018-12-25T18:04:25.658Z,21.15
2018-12-25T18:06:53.021Z,21.13
2018-12-25T18:09:21.503Z,21.19
2018-12-25T18:11:50.040Z,21.24
2018-12-25T18:14:18.017Z,21.20
2018-12-25T18:16:45.507Z,21.17
2018-12-25T18:19:13.765Z,21.22
2018-12-25T18:21:40.990Z,21.33
2018-12-25T18:24:08.726Z,21.46
2018-12-25T18:26:36.803Z,21.43
2018-12-25T18:29:04.122Z,21.43
2018-12-25T18:31:31.934Z,21.35
2018-12-25T18:34:00.529Z,21.46
2018-12-25T18:36:27.879Z,21.50
2018-12-25T18:38:55.880Z,21.44
2018-12-25T18:41:24.331Z,21.44
2018-12-25T18:43:52.490Z,21.44
2018-12-25T18:46:19.838Z,21.39
2018-12-25T18:48:48.249Z,21.05
2018-12-25T18:51:16.752Z,20.95
2018-12-25T18:53:43.612Z,21.03
2018-12-25T18:56:11.658Z,21.03
2018-12-25T18:58:39.723Z,21.05
2018-12-25T19:01:06.604Z,21.10
2018-12-25T19:03:35.003Z,21.10
2018-12-25T19:06:02.883Z,21.09
2018-12-25T19:08:30.718Z,21.05
2018-12-25T19:10:58.618Z,21.05
2018-12-25T19:13:25.967Z,20.90
2018-12-25T19:15:56.628Z,21.04
2018-12-25T19:18:25.018Z,21.10
2018-12-25T19:20:52.990Z,21.13
2018-12-25T19:23:20.968Z,21.07
2018-12-25T19:25:48.873Z,21.04
2018-12-25T19:28:16.954Z,21.02
2018-12-25T19:30:44.257Z,21.02
2018-12-25T19:33:11.510Z,20.93
2018-12-25T19:35:39.422Z,20.69
2018-12-25T19:38:07.797Z,20.64
2018-12-25T19:40:35.430Z,20.56
2018-12-25T19:43:40.288Z,20.59
2018-12-25T19:46:08.440Z,20.51
2018-12-25T19:48:36.419Z,20.48
2018-12-25T19:51:04.371Z,20.66
2018-12-25T19:53:32.109Z,20.61
2018-12-25T19:55:59.493Z,20.75
2018-12-25T19:58:27.765Z,20.65
2018-12-25T20:00:56.543Z,20.70
2018-12-25T20:03:41.003Z,20.66
2018-12-25T20:06:43.248Z,20.76
2018-12-25T20:10:03.248Z,20.85
2018-12-25T20:13:25.509Z,20.81
2018-12-25T20:16:46.501Z,20.83
2018-12-25T20:19:53.557Z,20.84
2018-12-25T20:23:16.447Z,20.88
2018-12-25T20:26:34.531Z,20.91
2018-12-25T20:30:08.322Z,20.89
2018-12-25T20:33:35.585Z,20.94
2018-12-25T20:37:12.593Z,20.97
2018-12-25T20:40:43.241Z,21.05
2018-12-25T20:44:09.463Z,21.04
2018-12-25T20:47:39.236Z,21.06
2018-12-25T20:51:17.507Z,21.06
2018-12-25T20:57:37.737Z,21.24
2018-12-25T21:02:41.766Z,21.21
2018-12-25T21:06:31.427Z,21.12
2018-12-25T21:10:07.767Z,21.16
2018-12-25T21:13:47.565Z,21.10
2018-12-25T21:17:25.247Z,21.07
2018-12-25T21:20:43.737Z,21.07
2018-12-25T21:23:48.597Z,21.14
2018-12-25T21:27:12.509Z,21.21
2018-12-25T21:29:40.785Z,21.22
2018-12-25T21:32:08.482Z,21.26
2018-12-25T21:34:35.897Z,21.27
2018-12-25T21:37:03.438Z,21.35
2018-12-25T21:39:31.615Z,21.37
2018-12-25T21:41:59.240Z,21.30
2018-12-25T21:44:27.408Z,21.38
2018-12-25T21:46:54.774Z,21.34
2018-12-25T21:49:22.647Z,21.37
2018-12-25T21:51:50.893Z,21.39
2018-12-25T21:54:18.239Z,21.45
2018-12-25T21:56:45.618Z,21.42
2018-12-25T21:59:13.422Z,21.50
2018-12-25T22:01:41.227Z,21.50
2018-12-25T22:04:10.499Z,21.48
2018-12-25T22:06:37.990Z,21.60
2018-12-25T22:09:06.392Z,21.57
2018-12-25T22:11:34.485Z,21.61
2018-12-25T22:14:01.791Z,21.66
2018-12-25T22:16:29.249Z,21.58
2018-12-25T22:18:57.517Z,21.62
2018-12-25T22:21:24.808Z,21.55
2018-12-25T22:23:52.525Z,21.63
2018-12-25T22:26:20.787Z,21.63
2018-12-25T22:28:49.322Z,21.67
2018-12-25T22:31:17.429Z,21.59
2018-12-25T22:33:45.020Z,21.60
2018-12-25T22:36:12.454Z,21.58
2018-12-25T22:38:40.384Z,21.47
2018-12-25T22:41:07.921Z,21.53
2018-12-25T22:43:35.502Z,21.52
2018-12-25T22:46:02.886Z,21.48
2018-12-25T22:48:30.408Z,21.42
2018-12-25T22:50:57.772Z,21.42
2018-12-25T22:53:24.902Z,21.40
2018-12-25T22:55:53.018Z,21.36
2018-12-25T22:58:22.881Z,21.34
2018-12-25T23:00:50.317Z,21.26
2018-12-25T23:03:17.615Z,21.26
2018-12-25T23:05:44.837Z,21.29
2018-12-25T23:08:13.233Z,21.24
2018-12-25T23:10:40.709Z,21.24
2018-12-25T23:13:08.393Z,21.21
2018-12-25T23:15:36.706Z,21.25
2018-12-25T23:18:04.393Z,21.24
2018-12-25T23:20:32.709Z,21.20
2018-12-25T23:23:00.240Z,21.21
2018-12-25T23:25:28.481Z,21.21
2018-12-25T23:27:56.482Z,21.21
2018-12-25T23:30:24.820Z,21.24
2018-12-25T23:32:52.883Z,21.21
2018-12-25T23:35:20.867Z,21.13
2018-12-25T23:37:48.245Z,21.11
2018-12-25T23:40:15.857Z,21.11
2018-12-25T23:42:43.483Z,21.11
2018-12-25T23:45:11.726Z,21.11
2018-12-25T23:47:39.239Z,21.08
2018-12-25T23:50:07.528Z,21.09
2018-12-25T23:52:35.597Z,21.08
2018-12-25T23:55:02.873Z,21.04
2018-12-25T23:57:31.429Z,20.99
2018-12-25T23:59:59.078Z,20.99
